METAR AND TAF INFORMATION
METAR FOR EFVA
ADDS - METARS form results

(0101 UTC 22 April 2019)
Data provider http://aviationweather.gov/metar/data/
 
METAR text: EFVA 220050Z AUTO 21010KT 180V240 9999 BKN066/// OVC078/// 07/M00 Q1019
Conditions at: EFVA (VAASA , FI) observed 0050 UTC 22 April 2019
Temperature: 7.0°C (45°F)
Dewpoint: 0.0°C (32°F) [RH = 61%]
Pressure (altimeter): 30.09 inches Hg (1019.0 mb)
Winds: from the SSW (210 degrees) at 12 MPH (10 knots; 5.1 m/s)
Visibility: 6 or more miles (10+ km)
Ceiling: 6600 feet AGL
Clouds: broken clouds at 6600 feet AGL
overcast cloud deck at 7800 feet AGL
Weather: no significant weather observed at this time

METAR text: EFVA 220020Z AUTO 21010KT 9999 FEW055/// OVC064/// 07/M01 Q1019
Conditions at: EFVA (VAASA , FI) observed 0020 UTC 22 April 2019
Temperature: 7.0°C (45°F)
Dewpoint: -1.0°C (30°F) [RH = 57%]
Pressure (altimeter): 30.09 inches Hg (1019.0 mb)
Winds: from the SSW (210 degrees) at 12 MPH (10 knots; 5.1 m/s)
Visibility: 6 or more miles (10+ km)
Ceiling: 6400 feet AGL
Clouds: few clouds at 5500 feet AGL
overcast cloud deck at 6400 feet AGL
Weather: no significant weather observed at this time

Forecast for: EFVA (VAASA , FI)
Text: TAF EFVA 212337Z 2200/2224 21012KT CAVOK
Forecast period: 0000 UTC 22 April 2019 to 0000 UTC 23 April 2019
Forecast type: FROM: standard forecast or significant change
Winds: from the SSW (210 degrees) at 14 MPH (12 knots; 6.2 m/s)
Visibility: 6 or more miles 10+ km)
Ceiling: unknown
Clouds: missing
Weather: NSW  (no significant weather)

 AIRPORT MAP

 RUNWAY INFORMATION
Runway 16 Runway length 8727 ft Runway width 157 ft
Runway elevation 19 ft Runway displaced threshold 0 ft Runway heading 163
Runway 34 Runway length 8727 ft Runway width 157 ft
Runway elevation 11 ft Runway displaced threshold 525 ft Runway heading 343

 AIRPORT FREQUENCIES
Type ATIS Name ATIS Frequency 114.5 MHZ
Type TWR Name TWR Frequency 119.3 MHZ

 AIRPORT NEAR NAVIGATION AIDS
Type VOR-DME Name Vaasa Frequency 114500 KHZ



©2017-2018 BlueSkies Virtual